Time;durP1;ratioP1;P1;durP2;ratioP2;P2;SDS_P1;SDS_P2;PMS_P1;PMS_P2;Temp;Humidity;BMP_temperature;BMP_pressure;BME280_temperature;BME280_humidity;BME280_pressure;Samples;Min_cycle;Max_cycle;Signal;HPM_P1;HPM_P2
2022/09/09 00:02:00;;;;;;;4.20;2.10;;;21.20;99.60;;;;;;5051316;28;20525;-74
2022/09/09 00:04:37;;;;;;;2.27;1.60;;;21.10;99.40;;;;;;5051955;28;20182;-74
2022/09/09 00:07:29;;;;;;;2.67;2.00;;;21.10;99.70;;;;;;5051902;28;20269;-74
2022/09/09 00:10:29;;;;;;;5.83;2.00;;;21.10;99.70;;;;;;5067292;28;20606;-74
2022/09/09 00:13:33;;;;;;;3.40;1.97;;;21.20;99.90;;;;;;5035389;28;20195;-75
2022/09/09 00:16:24;;;;;;;4.93;1.90;;;21.10;99.80;;;;;;5075985;28;20256;-75
2022/09/09 00:19:24;;;;;;;3.73;1.93;;;21.10;99.40;;;;;;5059735;28;20267;-75
2022/09/09 00:22:17;;;;;;;2.87;1.80;;;21.00;99.00;;;;;;5045978;28;20179;-75
2022/09/09 00:24:53;;;;;;;4.70;1.93;;;21.00;98.60;;;;;;5068236;28;20209;-74
2022/09/09 00:27:41;;;;;;;4.37;2.00;;;21.00;98.10;;;;;;5052023;28;20585;-75
2022/09/09 00:30:26;;;;;;;2.80;2.00;;;21.00;97.60;;;;;;5048664;28;20257;-75
2022/09/09 00:33:11;;;;;;;2.67;1.90;;;21.00;97.20;;;;;;5054678;28;20258;-75
2022/09/09 00:35:59;;;;;;;3.23;1.77;;;21.00;97.00;;;;;;5068901;28;20213;-76
2022/09/09 00:38:37;;;;;;;2.80;1.80;;;21.00;96.80;;;;;;5067304;28;20205;-75
2022/09/09 00:41:32;;;;;;;1.93;1.60;;;21.00;96.60;;;;;;5056139;28;20183;-75
2022/09/09 00:44:17;;;;;;;5.80;1.80;;;20.90;96.30;;;;;;5069576;28;20206;-75
2022/09/09 00:47:39;;;;;;;2.10;1.70;;;20.80;96.10;;;;;;5068951;28;20186;-75
2022/09/09 00:50:49;;;;;;;4.30;1.70;;;20.80;96.40;;;;;;5044369;28;20195;-75
2022/09/09 00:54:06;;;;;;;4.90;2.03;;;20.80;96.00;;;;;;5074953;28;20326;-75
2022/09/09 00:57:13;;;;;;;3.50;1.73;;;20.80;95.60;;;;;;5049664;28;20177;-75
2022/09/09 00:59:47;;;;;;;5.17;1.80;;;20.80;96.00;;;;;;5060419;28;20194;-75
2022/09/09 01:02:49;;;;;;;2.60;1.60;;;20.80;96.10;;;;;;5051228;28;20175;-76
2022/09/09 01:05:43;;;;;;;3.30;1.77;;;20.80;96.20;;;;;;5070503;28;20667;-76
2022/09/09 01:08:39;;;;;;;2.60;1.70;;;20.80;96.10;;;;;;5048167;28;20222;-74
2022/09/09 01:11:25;;;;;;;3.03;1.67;;;20.70;95.90;;;;;;5044530;28;20199;-75
2022/09/09 01:14:27;;;;;;;2.47;1.70;;;20.70;95.80;;;;;;5051020;28;20183;-74
2022/09/09 01:17:05;;;;;;;3.00;1.60;;;20.70;95.80;;;;;;5066654;28;20235;-75
2022/09/09 01:19:44;;;;;;;2.40;1.73;;;20.60;95.70;;;;;;5062506;28;20190;-75
2022/09/09 01:22:21;;;;;;;2.83;1.80;;;20.60;95.80;;;;;;5065368;28;20208;-75
2022/09/09 01:25:35;;;;;;;2.87;1.80;;;20.50;95.50;;;;;;5065795;28;21183;-74
2022/09/09 01:28:10;;;;;;;2.77;1.70;;;20.60;95.40;;;;;;5077169;28;20745;-75
2022/09/09 01:30:41;;;;;;;3.23;1.80;;;20.60;95.00;;;;;;5068106;28;20202;-75
2022/09/09 01:33:16;;;;;;;3.53;1.67;;;20.60;94.90;;;;;;5066355;28;20273;-74
2022/09/09 01:36:00;;;;;;;5.20;1.70;;;20.60;94.90;;;;;;5050399;28;20170;-75
2022/09/09 01:38:29;;;;;;;2.80;1.70;;;20.50;94.80;;;;;;5041637;28;20187;-75
2022/09/09 01:40:56;;;;;;;3.40;1.87;;;20.50;94.80;;;;;;5066587;28;20182;-75
2022/09/09 01:43:24;;;;;;;2.83;1.90;;;20.40;94.40;;;;;;5068535;28;20191;-75
2022/09/09 01:45:55;;;;;;;2.40;1.47;;;20.30;94.20;;;;;;5068453;28;20655;-74
2022/09/09 01:48:26;;;;;;;1.90;1.43;;;20.20;94.50;;;;;;5049150;28;20197;-74
2022/09/09 01:50:52;;;;;;;2.83;1.90;;;20.20;94.60;;;;;;5060807;28;20218;-75
2022/09/09 01:53:21;;;;;;;2.23;1.77;;;20.30;94.70;;;;;;5063113;28;20212;-74
2022/09/09 01:56:31;;;;;;;4.97;1.80;;;20.30;94.70;;;;;;5050411;28;20262;-75
2022/09/09 01:59:41;;;;;;;3.60;1.80;;;20.20;94.60;;;;;;5066456;28;20710;-74
2022/09/09 02:02:33;;;;;;;4.50;1.80;;;20.10;94.70;;;;;;5062620;28;20285;-75
2022/09/09 02:05:37;;;;;;;2.70;1.67;;;20.00;95.00;;;;;;5049854;28;20175;-75
2022/09/09 02:08:17;;;;;;;2.43;1.70;;;20.00;95.10;;;;;;5062209;28;20539;-75
2022/09/09 02:10:56;;;;;;;2.10;1.47;;;19.90;95.30;;;;;;5067331;28;20217;-75
2022/09/09 02:13:23;;;;;;;3.27;1.77;;;20.00;95.70;;;;;;5066703;28;20190;-74
2022/09/09 02:16:30;;;;;;;2.23;1.80;;;20.00;96.00;;;;;;5068197;28;20174;-74
2022/09/09 02:19:15;;;;;;;2.87;1.73;;;20.00;96.20;;;;;;5044939;28;20187;-75
2022/09/09 02:21:45;;;;;;;6.37;1.80;;;20.00;96.90;;;;;;5058673;28;20187;-75
2022/09/09 02:24:16;;;;;;;2.43;1.73;;;20.10;97.50;;;;;;5061413;28;20176;-75
2022/09/09 02:26:45;;;;;;;2.83;1.60;;;20.10;98.20;;;;;;5046553;28;20190;-75
2022/09/09 02:29:35;;;;;;;2.87;1.70;;;20.10;99.00;;;;;;5048811;28;21430;-74
2022/09/09 02:32:08;;;;;;;3.40;1.87;;;20.20;99.90;;;;;;5063797;28;20701;-74
2022/09/09 02:34:47;;;;;;;3.77;1.73;;;20.20;99.90;;;;;;5066147;28;20171;-75
2022/09/09 02:37:19;;;;;;;2.60;1.73;;;20.30;99.90;;;;;;5082960;28;20201;-74
2022/09/09 02:39:46;;;;;;;2.53;1.70;;;20.30;99.90;;;;;;5067497;28;20194;-75
2022/09/09 02:42:14;;;;;;;5.03;2.20;;;20.30;99.90;;;;;;5054797;28;20850;-75
2022/09/09 02:44:42;;;;;;;3.67;2.13;;;20.40;99.90;;;;;;5062640;28;21519;-74
2022/09/09 02:47:38;;;;;;;4.33;2.53;;;20.40;99.90;;;;;;5070179;28;20653;-74
2022/09/09 02:50:19;;;;;;;3.63;1.90;;;20.50;99.90;;;;;;5069737;28;20301;-74
2022/09/09 02:53:28;;;;;;;4.33;1.90;;;20.50;99.90;;;;;;5050702;28;20194;-75
2022/09/09 02:56:13;;;;;;;2.10;1.90;;;20.50;99.90;;;;;;5061610;28;20240;-75
2022/09/09 02:58:41;;;;;;;4.80;2.13;;;20.40;99.90;;;;;;5069501;28;20190;-75
2022/09/09 03:01:08;;;;;;;4.97;1.77;;;20.40;99.90;;;;;;5063120;28;20206;-74
2022/09/09 03:03:38;;;;;;;2.83;1.63;;;20.30;99.90;;;;;;5062057;28;20251;-74
2022/09/09 03:06:05;;;;;;;2.30;1.80;;;20.30;99.90;;;;;;5053023;28;20183;-75
2022/09/09 03:08:31;;;;;;;3.50;1.70;;;20.30;99.90;;;;;;5052480;28;20281;-74
2022/09/09 03:11:02;;;;;;;5.03;2.07;;;20.30;99.90;;;;;;5062163;28;20199;-75
2022/09/09 03:13:29;;;;;;;2.90;1.80;;;20.30;99.90;;;;;;5069647;28;20179;-75
2022/09/09 03:15:55;;;;;;;2.20;1.50;;;20.20;99.90;;;;;;5066325;28;20226;-74
2022/09/09 03:18:23;;;;;;;3.10;2.00;;;20.30;99.90;;;;;;5073301;28;20231;-74
2022/09/09 03:20:49;;;;;;;4.47;1.70;;;20.30;99.90;;;;;;5075930;28;20516;-75
2022/09/09 03:23:15;;;;;;;2.50;1.83;;;20.30;99.90;;;;;;5062058;28;20195;-75
2022/09/09 03:25:51;;;;;;;2.33;1.70;;;20.30;99.90;;;;;;5061505;28;20236;-75
2022/09/09 03:28:18;;;;;;;2.13;1.83;;;20.30;99.90;;;;;;5070044;28;20190;-75
2022/09/09 03:30:44;;;;;;;5.33;1.90;;;20.30;99.90;;;;;;5070002;28;20234;-75
2022/09/09 03:33:12;;;;;;;3.70;1.77;;;20.30;99.90;;;;;;5056467;28;20671;-75
2022/09/09 03:35:39;;;;;;;2.03;1.63;;;20.30;99.90;;;;;;5070221;28;20206;-75
2022/09/09 03:38:05;;;;;;;4.37;1.93;;;20.40;99.90;;;;;;5068935;28;20209;-76
2022/09/09 03:40:31;;;;;;;3.30;1.77;;;20.40;99.90;;;;;;5069588;28;20195;-75
2022/09/09 03:43:00;;;;;;;2.50;2.00;;;20.30;99.90;;;;;;5069599;28;20191;-75
2022/09/09 03:45:26;;;;;;;2.47;1.73;;;20.30;99.90;;;;;;5077608;28;20229;-75
2022/09/09 03:47:52;;;;;;;4.50;1.90;;;20.30;99.90;;;;;;5069057;28;20213;-75
2022/09/09 03:50:19;;;;;;;3.30;1.60;;;20.40;99.90;;;;;;5069578;28;20207;-75
2022/09/09 03:52:46;;;;;;;5.03;1.90;;;20.30;99.90;;;;;;5068973;28;20198;-75
2022/09/09 03:55:14;;;;;;;3.60;2.00;;;20.30;99.90;;;;;;5061839;28;20198;-75
2022/09/09 03:57:40;;;;;;;4.17;2.00;;;20.30;99.90;;;;;;5068458;28;20182;-75
2022/09/09 04:00:08;;;;;;;5.23;1.97;;;20.30;99.90;;;;;;5063715;28;20296;-75
2022/09/09 04:02:34;;;;;;;3.80;2.10;;;20.30;99.90;;;;;;5053974;28;20571;-75
2022/09/09 04:05:01;;;;;;;3.63;1.90;;;20.30;99.90;;;;;;5070915;28;20178;-75
2022/09/09 04:07:28;;;;;;;5.93;2.07;;;20.30;99.90;;;;;;5071750;28;20190;-75
2022/09/09 04:09:54;;;;;;;7.23;2.00;;;20.30;99.90;;;;;;5074106;28;20199;-75
2022/09/09 04:12:22;;;;;;;6.57;1.80;;;20.40;99.90;;;;;;5064747;28;20204;-75
2022/09/09 04:14:48;;;;;;;5.00;1.80;;;20.40;99.90;;;;;;5068861;28;20183;-75
2022/09/09 04:17:17;;;;;;;6.77;2.00;;;20.40;99.90;;;;;;5053232;28;20726;-75
2022/09/09 04:19:43;;;;;;;2.40;1.67;;;20.50;99.90;;;;;;5052132;28;20815;-75
2022/09/09 04:22:10;;;;;;;4.10;1.97;;;20.60;99.90;;;;;;5054111;28;20647;-75
2022/09/09 04:24:37;;;;;;;1.97;1.70;;;20.60;99.90;;;;;;5067820;28;20191;-75
2022/09/09 04:27:03;;;;;;;3.80;1.47;;;20.60;99.90;;;;;;5064659;28;20285;-75
2022/09/09 04:29:30;;;;;;;3.20;1.93;;;20.70;99.90;;;;;;5056340;28;20206;-75
2022/09/09 04:31:56;;;;;;;2.90;1.67;;;20.80;99.90;;;;;;5070274;28;20250;-75
2022/09/09 04:34:22;;;;;;;8.10;1.80;;;20.80;99.90;;;;;;5088099;28;20175;-75
2022/09/09 04:36:48;;;;;;;4.27;1.77;;;20.80;99.90;;;;;;5072312;28;20209;-75
2022/09/09 04:39:14;;;;;;;5.90;2.00;;;20.80;99.90;;;;;;5048288;28;20191;-75
2022/09/09 04:41:41;;;;;;;10.00;2.00;;;20.70;99.90;;;;;;5061026;28;20543;-75
2022/09/09 04:44:07;;;;;;;3.73;1.83;;;20.70;99.90;;;;;;5052889;28;20191;-75
2022/09/09 04:46:34;;;;;;;5.53;2.13;;;20.60;99.90;;;;;;5067437;28;20279;-75
2022/09/09 04:49:00;;;;;;;2.70;1.80;;;20.50;99.90;;;;;;5069585;28;20179;-75
2022/09/09 04:51:28;;;;;;;5.53;2.10;;;20.60;99.90;;;;;;5076799;28;20198;-75
2022/09/09 04:53:54;;;;;;;4.20;2.07;;;20.50;99.90;;;;;;5062447;28;20191;-75
2022/09/09 04:56:22;;;;;;;4.77;2.10;;;20.60;99.90;;;;;;5066693;28;20182;-75
2022/09/09 04:58:48;;;;;;;2.60;1.90;;;20.70;99.90;;;;;;5062135;28;20198;-75
2022/09/09 05:01:23;;;;;;;6.07;1.90;;;20.80;99.90;;;;;;5070291;28;20178;-75
2022/09/09 05:03:53;;;;;;;6.03;1.93;;;20.90;99.90;;;;;;5068890;28;20182;-75
2022/09/09 05:06:21;;;;;;;3.13;2.10;;;21.00;99.90;;;;;;5051274;28;20185;-75
2022/09/09 05:08:50;;;;;;;3.77;2.00;;;21.10;99.90;;;;;;5052516;28;20281;-75
2022/09/09 05:11:30;;;;;;;2.20;1.87;;;21.10;99.90;;;;;;5047805;28;20301;-75
2022/09/09 05:13:56;;;;;;;4.63;2.00;;;21.20;99.90;;;;;;5057213;28;20298;-75
2022/09/09 05:16:24;;;;;;;2.57;1.73;;;21.30;99.90;;;;;;5048155;28;20176;-75
2022/09/09 05:18:51;;;;;;;3.60;1.90;;;21.30;99.90;;;;;;5048129;28;20552;-75
2022/09/09 05:21:21;;;;;;;5.83;1.60;;;21.40;99.90;;;;;;5061672;28;20563;-75
2022/09/09 05:23:47;;;;;;;6.30;2.10;;;21.50;99.90;;;;;;5066239;28;20202;-75
2022/09/09 05:26:17;;;;;;;2.93;1.70;;;21.50;99.90;;;;;;5032319;28;20190;-75
2022/09/09 05:28:45;;;;;;;2.20;1.70;;;21.60;99.90;;;;;;5065477;28;20210;-75
2022/09/09 05:31:14;;;;;;;4.83;2.10;;;21.70;99.90;;;;;;5067587;28;20207;-75
2022/09/09 05:33:43;;;;;;;2.13;1.70;;;21.80;99.90;;;;;;5067690;28;20186;-75
2022/09/09 05:36:19;;;;;;;2.60;2.03;;;21.80;99.90;;;;;;5055929;28;20202;-75
2022/09/09 05:38:49;;;;;;;3.23;1.87;;;21.90;99.90;;;;;;5072984;28;20202;-75
2022/09/09 05:41:22;;;;;;;3.73;2.00;;;22.00;99.90;;;;;;5068262;28;20183;-75
2022/09/09 05:43:49;;;;;;;2.67;1.90;;;22.10;99.90;;;;;;5068073;28;20202;-75
2022/09/09 05:46:20;;;;;;;3.40;1.80;;;22.10;99.90;;;;;;5051048;28;20186;-75
2022/09/09 05:48:51;;;;;;;5.50;2.30;;;22.20;99.90;;;;;;5066056;28;20187;-75
2022/09/09 05:51:26;;;;;;;3.40;1.90;;;22.20;99.90;;;;;;5056541;28;20668;-75
2022/09/09 05:53:54;;;;;;;4.57;1.90;;;22.20;99.90;;;;;;5031500;28;20191;-75
2022/09/09 05:56:25;;;;;;;4.23;2.13;;;22.30;99.90;;;;;;5061879;28;20183;-75
2022/09/09 05:58:53;;;;;;;4.93;1.90;;;22.40;99.90;;;;;;5060294;28;20190;-75
2022/09/09 06:01:28;;;;;;;5.40;2.08;;;22.40;99.90;;;;;;5067494;28;20648;-75
2022/09/09 06:03:55;;;;;;;2.83;2.00;;;22.50;99.90;;;;;;5050670;28;20200;-75
2022/09/09 06:06:28;;;;;;;2.57;1.90;;;22.60;99.90;;;;;;5055116;28;20197;-75
2022/09/09 06:08:57;;;;;;;5.10;1.80;;;22.70;99.90;;;;;;5066628;28;20230;-75
2022/09/09 06:11:31;;;;;;;3.85;2.17;;;22.80;99.90;;;;;;5051209;28;20218;-75
2022/09/09 06:13:58;;;;;;;4.50;2.00;;;23.00;99.90;;;;;;5069270;28;20665;-75
2022/09/09 06:16:27;;;;;;;4.68;2.58;;;23.10;99.90;;;;;;5067893;28;20865;-76
2022/09/09 06:18:56;;;;;;;3.65;2.30;;;23.20;99.90;;;;;;5067657;28;20186;-75
2022/09/09 06:21:38;;;;;;;5.63;2.20;;;23.20;99.90;;;;;;5072170;28;20513;-75
2022/09/09 06:24:07;;;;;;;12.75;2.65;;;23.40;99.90;;;;;;5079764;28;20663;-75
2022/09/09 06:26:40;;;;;;;5.88;2.15;;;23.50;99.90;;;;;;5077461;28;20198;-74
2022/09/09 06:29:07;;;;;;;7.63;2.20;;;23.70;99.90;;;;;;5047919;28;20201;-75
2022/09/09 06:31:36;;;;;;;3.90;2.00;;;23.90;99.90;;;;;;5068867;28;20190;-75
2022/09/09 06:34:06;;;;;;;4.20;2.42;;;23.90;99.90;;;;;;5070022;28;20198;-75
2022/09/09 06:36:37;;;;;;;4.43;2.13;;;24.00;99.90;;;;;;5054770;28;20183;-75
2022/09/09 06:39:06;;;;;;;10.82;2.10;;;24.10;99.90;;;;;;5055669;28;20282;-75
2022/09/09 06:41:34;;;;;;;4.55;2.20;;;24.10;99.90;;;;;;5070010;28;20203;-75
2022/09/09 06:44:00;;;;;;;3.70;2.13;;;24.20;99.90;;;;;;5075644;28;20682;-75
2022/09/09 06:46:32;;;;;;;7.68;2.50;;;24.20;99.90;;;;;;5072896;28;20190;-75
2022/09/09 06:49:00;;;;;;;5.93;1.83;;;24.30;99.90;;;;;;5062707;28;20191;-74
2022/09/09 06:51:34;;;;;;;2.20;1.73;;;24.50;99.90;;;;;;5054357;28;20664;-75
2022/09/09 06:54:02;;;;;;;7.03;2.13;;;24.60;99.90;;;;;;5053300;28;20738;-74
2022/09/09 06:56:44;;;;;;;5.28;2.35;;;24.80;99.90;;;;;;5090821;28;20206;-75
2022/09/09 06:59:12;;;;;;;3.55;2.17;;;24.90;99.90;;;;;;5050537;28;20186;-75
2022/09/09 07:01:41;;;;;;;3.50;2.00;;;24.90;99.90;;;;;;5066303;28;20179;-75
2022/09/09 07:04:08;;;;;;;7.30;2.10;;;24.90;99.90;;;;;;5071420;28;20211;-75
2022/09/09 07:06:44;;;;;;;3.20;2.25;;;24.90;99.90;;;;;;5079390;28;20627;-75
2022/09/09 07:09:14;;;;;;;5.18;2.20;;;25.00;99.90;;;;;;5053591;28;20183;-75
2022/09/09 07:11:48;;;;;;;5.30;2.17;;;25.10;99.90;;;;;;5071925;28;20187;-75
2022/09/09 07:14:16;;;;;;;4.53;2.30;;;25.20;99.90;;;;;;5062316;28;20198;-75
2022/09/09 07:16:45;;;;;;;6.05;2.30;;;25.30;99.90;;;;;;5053298;28;20269;-75
2022/09/09 07:19:13;;;;;;;6.90;2.05;;;25.40;99.90;;;;;;5069523;28;20246;-75
2022/09/09 07:21:40;;;;;;;4.15;2.20;;;25.50;99.90;;;;;;5070286;28;20175;-75
2022/09/09 07:24:09;;;;;;;3.92;2.17;;;25.60;99.90;;;;;;5070379;28;20262;-75
2022/09/09 07:26:37;;;;;;;3.70;2.10;;;25.70;99.90;;;;;;5053354;28;20183;-75
2022/09/09 07:29:04;;;;;;;8.98;2.20;;;25.80;99.90;;;;;;5070668;28;20183;-75
2022/09/09 07:31:35;;;;;;;3.20;2.10;;;25.80;99.90;;;;;;5058932;28;20242;-75
2022/09/09 07:34:02;;;;;;;2.83;2.22;;;26.00;99.90;;;;;;5069321;28;20258;-75
2022/09/09 07:36:37;;;;;;;3.85;2.00;;;26.00;99.90;;;;;;5050924;28;20533;-75
2022/09/09 07:39:13;;;;;;;3.60;2.10;;;26.00;99.90;;;;;;5052983;28;20278;-75
2022/09/09 07:41:48;;;;;;;7.28;2.67;;;26.20;99.90;;;;;;5054914;28;20192;-75
2022/09/09 07:44:21;;;;;;;5.22;2.63;;;26.30;99.90;;;;;;5070536;28;20285;-75
2022/09/09 07:46:48;;;;;;;2.95;2.20;;;26.30;99.90;;;;;;5052061;28;20186;-75
2022/09/09 07:49:15;;;;;;;5.78;2.22;;;26.30;99.90;;;;;;5049622;28;20210;-75
2022/09/09 07:51:46;;;;;;;5.40;2.08;;;26.50;99.90;;;;;;5065071;28;20341;-75
2022/09/09 07:54:15;;;;;;;7.03;2.17;;;26.70;99.90;;;;;;5055860;28;20656;-75
2022/09/09 07:56:44;;;;;;;3.05;1.92;;;26.70;99.90;;;;;;5064133;28;20179;-75
2022/09/09 07:59:11;;;;;;;6.55;2.20;;;26.80;99.90;;;;;;5066267;28;20270;-75
2022/09/09 08:02:01;;;;;;;2.92;1.95;;;26.80;99.90;;;;;;5061977;28;20191;-74
2022/09/09 08:04:28;;;;;;;3.25;1.90;;;27.00;99.90;;;;;;5069306;28;20219;-73
2022/09/09 08:06:59;;;;;;;7.97;2.30;;;27.10;99.90;;;;;;5073526;28;20675;-74
2022/09/09 08:09:32;;;;;;;3.90;2.30;;;27.10;99.90;;;;;;5057211;28;20273;-73
2022/09/09 08:11:59;;;;;;;5.78;2.00;;;27.20;99.90;;;;;;5062955;28;20187;-75
2022/09/09 08:14:26;;;;;;;6.50;2.15;;;27.30;99.90;;;;;;5054514;28;20277;-74
2022/09/09 08:16:54;;;;;;;4.90;2.30;;;27.30;99.90;;;;;;5066089;28;20194;-74
2022/09/09 08:19:20;;;;;;;5.00;1.80;;;27.40;99.90;;;;;;5063895;28;20197;-73
2022/09/09 08:21:48;;;;;;;5.40;2.53;;;27.40;99.90;;;;;;5052525;28;20186;-74
2022/09/09 08:24:19;;;;;;;3.80;1.90;;;27.50;99.90;;;;;;5069235;28;20212;-74
2022/09/09 08:26:50;;;;;;;3.47;2.33;;;27.50;99.90;;;;;;5052041;28;20562;-74
2022/09/09 08:29:18;;;;;;;13.10;2.25;;;27.60;99.90;;;;;;5068828;28;20203;-73
2022/09/09 08:31:52;;;;;;;3.80;1.77;;;27.70;99.90;;;;;;5054524;28;20234;-73
2022/09/09 08:34:19;;;;;;;4.10;1.92;;;27.80;99.90;;;;;;5059888;28;20207;-73
2022/09/09 08:36:49;;;;;;;3.90;2.05;;;27.80;99.90;;;;;;5068014;28;20187;-74
2022/09/09 08:39:18;;;;;;;7.38;2.05;;;27.90;99.90;;;;;;5074651;28;20373;-74
2022/09/09 08:42:28;;;;;;;5.55;2.08;;;27.90;99.90;;;;;;5045708;28;20258;-75
2022/09/09 08:45:37;;;;;;;6.60;2.22;;;27.90;99.90;;;;;;5065106;28;20179;-73
2022/09/09 08:48:30;;;;;;;4.13;2.10;;;28.00;99.90;;;;;;5037024;28;20269;-73
2022/09/09 08:51:30;;;;;;;6.65;2.20;;;28.10;99.90;;;;;;5056328;28;20567;-73
2022/09/09 08:54:02;;;;;;;7.03;2.00;;;28.20;99.90;;;;;;5058341;28;20195;-73
2022/09/09 08:56:32;;;;;;;3.72;1.80;;;28.30;99.90;;;;;;5051535;28;20175;-73
2022/09/09 08:59:05;;;;;;;4.28;1.77;;;28.40;99.90;;;;;;5051644;28;20183;-73
2022/09/09 09:02:08;;;;;;;5.43;2.08;;;28.40;99.90;;;;;;5072872;28;20259;-72
2022/09/09 09:04:53;;;;;;;7.20;2.05;;;28.40;99.90;;;;;;5066770;28;20189;-72
2022/09/09 09:07:48;;;;;;;8.23;2.10;;;28.50;99.90;;;;;;5066069;28;20174;-73
2022/09/09 09:10:24;;;;;;;8.88;2.00;;;28.60;99.90;;;;;;5044750;28;20232;-74
2022/09/09 09:12:55;;;;;;;2.55;2.00;;;28.80;99.90;;;;;;5050918;28;20545;-74
2022/09/09 09:15:26;;;;;;;5.38;2.20;;;28.80;99.90;;;;;;5068587;28;20648;-74
2022/09/09 09:17:53;;;;;;;7.88;2.22;;;29.00;99.90;;;;;;5062307;28;20194;-73
2022/09/09 09:21:11;;;;;;;3.35;1.92;;;29.00;99.90;;;;;;5052674;28;20262;-74
2022/09/09 09:23:58;;;;;;;6.90;1.80;;;29.20;99.90;;;;;;5040467;28;20195;-73
2022/09/09 09:26:32;;;;;;;2.58;1.85;;;29.30;99.90;;;;;;5054854;28;20278;-73
2022/09/09 09:29:09;;;;;;;3.80;2.00;;;29.50;99.90;;;;;;5072583;28;20662;-73
2022/09/09 09:31:36;;;;;;;3.35;2.03;;;29.70;99.90;;;;;;5068008;28;20215;-74
2022/09/09 09:34:02;;;;;;;4.88;1.90;;;29.80;99.90;;;;;;5072655;28;20286;-74
2022/09/09 09:36:46;;;;;;;3.30;2.08;;;29.80;99.90;;;;;;5068021;28;20262;-73
2022/09/09 09:39:23;;;;;;;3.22;1.75;;;29.90;99.90;;;;;;5068789;28;20209;-75
2022/09/09 09:41:51;;;;;;;8.20;2.15;;;30.10;99.90;;;;;;5046405;28;20183;-75
2022/09/09 09:44:35;;;;;;;8.85;1.90;;;30.20;99.90;;;;;;5069059;28;20188;-75
2022/09/09 09:47:17;;;;;;;3.17;1.95;;;30.40;99.90;;;;;;5051372;28;20582;-74
2022/09/09 09:50:02;;;;;;;5.50;2.08;;;30.60;99.90;;;;;;5074346;28;20209;-76
2022/09/09 09:52:34;;;;;;;3.47;1.75;;;30.90;99.90;;;;;;5050841;28;20187;-75
2022/09/09 09:55:12;;;;;;;6.25;2.05;;;33.10;99.90;;;;;;5053576;28;20187;-75
2022/09/09 09:57:38;;;;;;;4.60;1.98;;;34.60;99.90;;;;;;5058079;28;20183;-74
2022/09/09 10:00:20;;;;;;;4.20;1.90;;;35.30;99.90;;;;;;5067910;28;20280;-73
2022/09/09 10:02:48;;;;;;;4.07;2.08;;;34.20;99.90;;;;;;5065718;28;20272;-73
2022/09/09 10:05:21;;;;;;;6.85;1.70;;;32.80;99.90;;;;;;5049605;28;20901;-72
2022/09/09 10:08:09;;;;;;;4.45;2.00;;;32.20;99.90;;;;;;5051176;28;20240;-73
2022/09/09 10:11:06;;;;;;;10.48;2.00;;;31.80;99.90;;;;;;5077754;28;20203;-75
2022/09/09 10:13:33;;;;;;;4.97;2.08;;;31.50;99.90;;;;;;5049369;28;20199;-74
2022/09/09 10:16:40;;;;;;;2.75;2.05;;;31.50;99.90;;;;;;5063212;28;20276;-76
2022/09/09 10:19:21;;;;;;;5.10;1.98;;;31.30;99.90;;;;;;5062834;28;20248;-74
2022/09/09 10:22:24;;;;;;;3.20;2.08;;;32.30;99.90;;;;;;5069394;28;20524;-75
2022/09/09 10:25:20;;;;;;;2.58;2.00;;;33.80;99.90;;;;;;5074730;28;20194;-75
2022/09/09 10:28:47;;;;;;;7.53;1.92;;;32.80;99.90;;;;;;5062089;28;20250;-76
2022/09/09 10:32:01;;;;;;;7.30;2.20;;;31.80;99.90;;;;;;5069590;28;20218;-77
2022/09/09 10:34:54;;;;;;;5.75;2.40;;;31.00;99.90;;;;;;5022344;28;20175;-75
2022/09/09 10:37:57;;;;;;;5.25;2.10;;;30.70;99.90;;;;;;5070789;28;20205;-76
2022/09/09 10:40:44;;;;;;;3.35;1.85;;;30.60;99.90;;;;;;5068709;28;20285;-76
2022/09/09 10:43:16;;;;;;;3.50;2.05;;;30.60;99.90;;;;;;5069855;28;20186;-77
2022/09/09 10:46:02;;;;;;;8.82;2.13;;;30.40;99.90;;;;;;5067751;28;20206;-77
2022/09/09 10:49:04;;;;;;;3.55;1.90;;;30.40;99.90;;;;;;5061432;28;20201;-75
2022/09/09 10:52:16;;;;;;;6.88;1.80;;;30.40;99.90;;;;;;5077588;28;20210;-76
2022/09/09 10:55:17;;;;;;;11.63;1.98;;;30.40;99.90;;;;;;5066326;28;20677;-76
2022/09/09 10:57:54;;;;;;;5.78;1.75;;;30.30;99.90;;;;;;5060321;28;20659;-76
2022/09/09 11:00:30;;;;;;;4.10;2.00;;;30.50;99.90;;;;;;5060419;28;20194;-77
2022/09/09 11:03:04;;;;;;;9.40;2.40;;;30.50;99.90;;;;;;5060840;28;20265;-77
2022/09/09 11:05:53;;;;;;;3.65;2.00;;;30.60;99.90;;;;;;5070263;28;20197;-76
2022/09/09 11:08:31;;;;;;;6.50;2.25;;;30.60;99.90;;;;;;5069239;28;20199;-75
2022/09/09 11:11:04;;;;;;;5.82;1.90;;;30.70;99.90;;;;;;5052445;28;20214;-77
2022/09/09 11:13:58;;;;;;;4.82;1.95;;;30.60;99.90;;;;;;5074683;28;20217;-76
2022/09/09 11:16:45;;;;;;;2.80;1.90;;;30.30;99.90;;;;;;5074949;28;20194;-76
2022/09/09 11:19:42;;;;;;;7.30;2.10;;;30.30;99.90;;;;;;5053953;28;20314;-75
2022/09/09 11:22:31;;;;;;;4.07;2.00;;;30.30;99.90;;;;;;5068096;28;20195;-77
2022/09/09 11:25:51;;;;;;;5.63;1.90;;;30.30;99.90;;;;;;5067369;28;20286;-75
2022/09/09 11:29:08;;;;;;;3.90;2.10;;;30.30;99.90;;;;;;5056435;28;20315;-75
2022/09/09 11:31:44;;;;;;;7.80;1.98;;;30.20;99.90;;;;;;5051132;28;20210;-74
2022/09/09 11:34:43;;;;;;;5.22;2.33;;;30.30;99.90;;;;;;5070331;28;20274;-74
2022/09/09 11:37:37;;;;;;;6.88;2.25;;;30.30;99.90;;;;;;5053603;28;20187;-75
2022/09/09 11:40:22;;;;;;;4.60;1.90;;;30.20;99.90;;;;;;5060855;28;20214;-75
2022/09/09 11:43:00;;;;;;;6.78;2.05;;;30.20;99.90;;;;;;5073004;28;20265;-77
2022/09/09 11:45:31;;;;;;;3.05;1.90;;;30.20;99.90;;;;;;5050605;28;20181;-77
2022/09/09 11:48:03;;;;;;;3.88;1.80;;;30.10;99.90;;;;;;5074910;28;20183;-76
2022/09/09 11:50:36;;;;;;;8.07;2.10;;;29.90;99.90;;;;;;5073114;28;20493;-76
2022/09/09 11:53:20;;;;;;;2.97;2.00;;;30.00;99.90;;;;;;5063852;28;20323;-77
2022/09/09 11:55:48;;;;;;;4.13;2.22;;;29.90;99.90;;;;;;5057690;28;20251;-77
2022/09/09 11:58:19;;;;;;;3.35;1.70;;;30.00;99.90;;;;;;5068302;28;20191;-77
2022/09/09 12:00:50;;;;;;;3.45;1.80;;;30.00;99.90;;;;;;5067637;28;20272;-77
2022/09/09 12:03:46;;;;;;;3.97;2.05;;;29.90;99.90;;;;;;5073737;28;20244;-77
2022/09/09 12:06:33;;;;;;;4.13;1.60;;;30.00;99.90;;;;;;5057804;28;20194;-76
2022/09/09 12:09:48;;;;;;;4.78;1.92;;;30.10;99.90;;;;;;5056849;28;20195;-76
2022/09/09 12:12:14;;;;;;;6.53;1.83;;;29.80;99.90;;;;;;5068420;28;20215;-76
2022/09/09 12:15:07;;;;;;;17.70;2.03;;;29.80;99.90;;;;;;5061116;28;20251;-77
2022/09/09 12:17:46;;;;;;;6.65;1.88;;;29.90;99.90;;;;;;5050975;28;20186;-77
2022/09/09 12:20:20;;;;;;;7.53;2.20;;;29.90;99.90;;;;;;5065033;28;20215;-76
2022/09/09 12:23:01;;;;;;;5.72;2.08;;;29.80;99.90;;;;;;5067450;28;20178;-76
2022/09/09 12:26:17;;;;;;;3.22;1.73;;;29.80;99.90;;;;;;5077612;28;20306;-76
2022/09/09 12:29:11;;;;;;;4.20;2.13;;;29.70;99.90;;;;;;5058869;28;20199;-76
2022/09/09 12:32:08;;;;;;;2.47;1.73;;;29.70;99.90;;;;;;5070055;28;20213;-74
2022/09/09 12:35:07;;;;;;;6.93;1.80;;;29.70;99.90;;;;;;5068703;28;20187;-75
2022/09/09 12:38:02;;;;;;;3.92;1.70;;;29.70;99.90;;;;;;5060312;28;20238;-73
2022/09/09 12:40:35;;;;;;;7.78;2.35;;;29.80;99.90;;;;;;5059920;28;20186;-74
2022/09/09 12:43:24;;;;;;;8.55;2.03;;;29.60;99.90;;;;;;5068960;28;20175;-74
2022/09/09 12:46:00;;;;;;;3.15;1.77;;;29.50;99.90;;;;;;5068792;28;20551;-75
2022/09/09 12:48:42;;;;;;;8.05;2.20;;;29.50;99.90;;;;;;5051378;28;20194;-75
2022/09/09 12:51:28;;;;;;;3.65;1.83;;;29.50;99.90;;;;;;5068910;28;20214;-75
2022/09/09 12:53:58;;;;;;;5.47;1.83;;;29.40;99.90;;;;;;5067100;28;20628;-75
2022/09/09 12:56:32;;;;;;;4.20;2.55;;;29.40;99.90;;;;;;5052130;28;20222;-74
2022/09/09 12:59:00;;;;;;;5.10;2.20;;;29.30;99.90;;;;;;5052169;28;20228;-75
2022/09/09 13:01:31;;;;;;;5.82;1.90;;;29.40;99.90;;;;;;5060983;28;20190;-75
2022/09/09 13:03:58;;;;;;;4.63;2.17;;;29.40;99.90;;;;;;5069924;28;20183;-75
2022/09/09 13:06:29;;;;;;;5.60;2.00;;;29.30;99.90;;;;;;5051293;28;20501;-74
2022/09/09 13:09:03;;;;;;;4.45;2.17;;;29.20;99.90;;;;;;5068458;28;20189;-75
2022/09/09 13:11:47;;;;;;;4.43;1.80;;;29.20;99.90;;;;;;5068519;28;20599;-75
2022/09/09 13:14:28;;;;;;;5.47;2.00;;;29.20;99.90;;;;;;5070179;28;20217;-75
2022/09/09 13:17:10;;;;;;;7.80;1.90;;;29.30;99.90;;;;;;5067562;28;20197;-75
2022/09/09 13:19:45;;;;;;;8.35;2.10;;;29.30;99.90;;;;;;5064668;28;20222;-76
2022/09/09 13:22:37;;;;;;;5.72;1.85;;;29.30;99.90;;;;;;5057837;28;20184;-74
2022/09/09 13:25:12;;;;;;;5.18;2.00;;;29.20;99.90;;;;;;5044806;28;20225;-75
2022/09/09 13:28:05;;;;;;;6.80;2.03;;;29.10;99.90;;;;;;5063954;28;20585;-76
2022/09/09 13:30:40;;;;;;;6.28;2.22;;;29.10;99.90;;;;;;5067576;28;20205;-76
2022/09/09 13:33:22;;;;;;;4.47;1.95;;;29.20;99.90;;;;;;5062725;28;20703;-75
2022/09/09 13:36:10;;;;;;;3.22;2.00;;;29.10;99.90;;;;;;5049624;28;20192;-75
2022/09/09 13:38:55;;;;;;;6.75;1.90;;;28.90;99.90;;;;;;5062502;28;20214;-74
2022/09/09 13:41:35;;;;;;;8.60;2.10;;;28.90;99.90;;;;;;5050645;28;20190;-76